Saturday, December 16, 2017, 5:52 AM EST
Back to Local

KHLG, Wheeling Ohio County Airport

Location: Wheeling, WV, United States Lat: 40.167
Local Time: 5:52 AM EST (10:52 GMT) Lon: -80.65
Time Zone: US/Eastern Elev: 1194 ft

Show me the last for .
Show Decoded

2017-12-16 04:53 METAR KHLG 160953Z AUTO 23013G20KT 9SM OVC040 M02/M07 A3002 RMK AO2 SNB30E50
                 SLP183 P0000 T10221067 =
2017-12-16 03:53 METAR KHLG 160853Z AUTO 22010G17KT 10SM BKN047 OVC065 M02/M08 A3003 RMK AO2
                 SLP186 T10221083 51007 =
2017-12-16 02:53 METAR KHLG 160753Z AUTO 23010G17KT 10SM BKN048 OVC095 M02/M09 A3003 RMK AO2
                 SLP185 T10221089 =
2017-12-16 01:53 METAR KHLG 160653Z AUTO 23012G21KT 10SM SCT050 M03/M09 A3001 RMK AO2 SLP180
                 T10281089 =
2017-12-16 00:53 METAR KHLG 160553Z AUTO 22013G19KT 10SM FEW047 OVC055 M02/M09 A3001 RMK AO2
                 SLP178 60000 T10221089 11022 21033 50004 =
2017-12-15 23:53 METAR KHLG 160453Z AUTO 25010KT 10SM OVC055 M02/M09 A3002 RMK AO2 SLP183
                 T10221089 410221100 =
2017-12-15 22:53 METAR KHLG 160353Z AUTO 25010KT 10SM OVC049 M02/M08 A3002 RMK AO2 SNE18 SLP182
                 P0000 T10221083 =
2017-12-15 22:19 METAR KHLG 160319Z AUTO 27012G18KT 9SM SCT027 SCT039 OVC047 M03/M08 A3000 RMK
                 AO2 SNE18 P0000 T10281078 =
2017-12-15 22:05 METAR KHLG 160305Z AUTO 29010G19KT 3SM -SN BKN028 OVC039 M03/M07 A3000 RMK AO2
                 P0000 T10281072 =
2017-12-15 21:53 METAR KHLG 160253Z 27012G21KT 6SM -SN BKN030 OVC038 M02/M08 A2999 RMK AO2 PK WND
                 25026/0215 SNB37 SLP177 P0000 60000 T10221078 53019 =
2017-12-15 20:53 METAR KHLG 160153Z 24011G18KT 10SM FEW031 FEW040 OVC050 M03/M07 A2997 RMK AO2
                 SNE10B27E47 SLP167 P0000 T10281072 =
2017-12-15 20:30 METAR KHLG 160130Z 25008KT 8SM -SN FEW029 SCT035 OVC050 M03/M07 A2996 RMK AO2
                 SNE10B27 P0000 T10281072 =
2017-12-15 20:19 METAR KHLG 160119Z 25008KT 10SM FEW024 BKN029 OVC048 M03/M07 A2996 RMK AO2 SNE10
                 P0000 T10281072 =
2017-12-15 19:53 METAR KHLG 160053Z 25013G19KT 5SM -SN SCT023 BKN030 OVC050 M03/M07 A2995 RMK AO2
                 SNE13B46 SLP164 P0000 T10281072 =
2017-12-15 19:29 METAR KHLG 160029Z 25010G18KT 10SM SCT025 BKN031 OVC055 M03/M08 A2995 RMK AO2
                 SNE13 P0000 T10281078 =
2017-12-15 18:53 METAR KHLG 152353Z 26011G19KT 4SM -SN BKN025 OVC034 M03/M08 A2994 RMK AO2 SLP158
                 P0000 60000 T10331078 11022 21039 53017 =
2017-12-15 17:53 METAR KHLG 152253Z 25009G19KT 9SM -SN BKN036 BKN046 OVC055 M03/M09 A2991 RMK AO2
                 SNB44 SLP150 P0000 T10281089 =
2017-12-15 16:53 METAR KHLG 152153Z 23011G18KT 10SM SCT036 OVC049 M03/M09 A2989 RMK AO2 SLP143
                 T10281094 =
2017-12-15 15:53 METAR KHLG 152053Z 24009G17KT 10SM BKN040 OVC048 M03/M10 A2988 RMK AO2 SLP139
                 T10281100 56006 =
2017-12-15 14:53 METAR KHLG 151953Z 26008G20KT 10SM OVC040 M03/M11 A2989 RMK AO2 SLP144 T10281106
                 =
2017-12-15 13:53 METAR KHLG 151853Z 25009G20KT 10SM SCT080 M03/M12 A2989 RMK AO2 SLP140 T10281117
                 =
2017-12-15 12:53 METAR KHLG 151753Z 25009KT 10SM CLR M04/M12 A2990 RMK AO2 SLP147 T10391117 11033
                 21100 58018 =
2017-12-15 11:53 METAR KHLG 151653Z 26007KT 10SM SCT100 M05/M11 A2992 RMK AO2 SLP154 T10501106 =
2017-12-15 10:53 METAR KHLG 151553Z 25005KT 10SM CLR M06/M10 A2995 RMK AO2 SLP164 T10611100 =
2017-12-15 09:53 METAR KHLG 151453Z 00000KT 8SM CLR M08/M10 A2996 RMK AO2 SLP167 T10831100 55006
                 =
2017-12-15 08:53 METAR KHLG 151353Z 00000KT 6SM BR FEW120 M09/M11 A2996 RMK AO2 SLP166 T10891106
                 =
2017-12-15 08:03 METAR KHLG 151303Z 00000KT 6SM BR FEW029 M09/M11 A2996 RMK AO2 T10941111 =
2017-12-15 07:53 METAR KHLG 151253Z 00000KT 6SM BR BKN029 M09/M11 A2996 RMK AO2 SLP169 T10941111
                 =
2017-12-15 07:08 METAR KHLG 151208Z 00000KT 8SM BKN029 M09/M11 A2997 RMK AO2 T10941111 =
2017-12-15 06:53 METAR KHLG 151153Z 00000KT 9SM FEW030 M10/M12 A2998 RMK AO2 SLP173 70001 I6000
                 T11001117 11078 21100 55004 =
2017-12-15 05:53 METAR KHLG 151053Z AUTO 00000KT 7SM BKN030 M09/M12 A2998 RMK AO2 SLP173
                 T10941117 =

Support USWX by starting your Amazon purchase here.